CYRT

Rankin Inlet Airport

Rankin Inlet, Canada
METAR CYRT 092100Z 13011KT 10SM IC DRSN SCT009 BKN090 M16/M19 A3004 RMK SC3AC4 SLP178
Observed Flight Rules
Dec-9 @ 21:00 UTC (60 minutes ago) Visual Flight Rules
Wind Visibility Clouds Conditions
130° at 11 knots 10 miles
  • Scattered at 900' AGL
  • Broken at 9,000' AGL
  • Ice crystals
  • Low drifting
  • Snow
Temperatures Readings
Current -16°C / 3°F
Dewpoint -19°C / -2°F
Humidity 78%
Altimeter 30.04" Hg
Pressure 1017.8 hPa
Elevation 32
METAR CYRT 092100Z 13011KT 10SM IC DRSN SCT009 BKN090 M16/M19 A3004 RMK SC3AC4 SLP178
Observed Flight Rules
Dec-9 @ 21:00 UTC
(60 minutes ago)
VFR
Wind Visibility
130° at 11 knots 10 miles
Clouds
  • Scattered at 900' AGL
  • Broken at 9,000' AGL
Conditions
  • Ice crystals
  • Low drifting
  • Snow
Temperature Dewpoint
-16°C / 3°F -19°C / -2°F
Humidity Altimeter Pressure
78% 30.04" Hg 1017.8 hPa